Gilly, Kentucky
Current Conditions -  °F | °C
As of 9:15 AM on Monday 24 Nov 2014 (Local Time) from KI35 Reporting Station
Broken Clouds Broken Clouds  
Wind Chill: 63°   Ceiling: 3500
Heat Index: 63°   Visibility: 10mi
Dew Point: 48°   Wind: 10mph
Humidity: 59%   Direction: 190°S
Pressure: 29.63"   Gusts: 25mph
Location:  36.9942°N, 83.0709°W
Report Text: KI35 241415Z AUTO 19009G22KT 140V230 10SM BKN035 BKN042 BKN050 17/09 A2963 RMK AO1
Loading
Personal Weather Stations






























Interactive Weather Map New forecast layout! Learn more

10-Day Weather Forecast

Advertisements
Track Severe Weather on mobile